Time;durP1;ratioP1;P1;durP2;ratioP2;P2;SDS_P1;SDS_P2;PMS_P1;PMS_P2;Temp;Humidity;BMP_temperature;BMP_pressure;BME280_temperature;BME280_humidity;BME280_pressure;Samples;Min_cycle;Max_cycle;Signal;HPM_P1;HPM_P2
2022/04/17 00:00:55;;;;;;;7.03;5.90;;;11.30;1.00;;;;;;5095294;28;20175;-69
2022/04/17 00:03:22;;;;;;;7.50;6.63;;;11.20;1.00;;;;;;5113236;28;20171;-68
2022/04/17 00:05:49;;;;;;;12.00;7.70;;;11.10;1.00;;;;;;5113469;28;20167;-68
2022/04/17 00:08:15;;;;;;;8.33;6.63;;;11.10;1.00;;;;;;5113802;28;20164;-69
2022/04/17 00:10:41;;;;;;;7.50;5.83;;;11.10;1.00;;;;;;5095374;28;20190;-68
2022/04/17 00:13:06;;;;;;;10.47;8.20;;;11.00;1.00;;;;;;5113870;28;20188;-69
2022/04/17 00:15:32;;;;;;;9.70;7.13;;;11.00;1.00;;;;;;5113145;28;20179;-68
2022/04/17 00:17:57;;;;;;;14.83;10.43;;;10.90;1.00;;;;;;5113157;28;20256;-68
2022/04/17 00:20:23;;;;;;;8.53;7.10;;;10.90;1.00;;;;;;5113425;28;20179;-69
2022/04/17 00:22:49;;;;;;;8.43;6.03;;;10.80;1.00;;;;;;5095145;28;20531;-68
2022/04/17 00:25:16;;;;;;;7.97;7.20;;;10.80;99.90;;;;;;5113606;28;20236;-68
2022/04/17 00:27:42;;;;;;;15.47;10.97;;;10.80;1.00;;;;;;5113425;28;20227;-69
2022/04/17 00:30:09;;;;;;;15.97;11.00;;;10.80;1.00;;;;;;5113045;28;20175;-68
2022/04/17 00:32:36;;;;;;;14.23;10.17;;;10.70;1.00;;;;;;5113172;28;20207;-69
2022/04/17 00:35:04;;;;;;;14.10;10.23;;;10.60;1.00;;;;;;5113351;28;20159;-68
2022/04/17 00:37:29;;;;;;;32.47;18.53;;;10.50;31.30;;;;;;5113275;28;20207;-68
2022/04/17 00:39:55;;;;;;;12.07;7.47;;;10.50;1.00;;;;;;5116244;28;20199;-68
2022/04/17 00:42:20;;;;;;;8.37;7.17;;;10.50;1.00;;;;;;5117537;28;20259;-69
2022/04/17 00:44:46;;;;;;;6.80;5.50;;;10.50;1.00;;;;;;5117242;28;20634;-69
2022/04/17 00:47:15;;;;;;;5.93;5.30;;;10.50;99.90;;;;;;5116750;28;20175;-69
2022/04/17 00:49:45;;;;;;;12.77;7.87;;;10.50;99.90;;;;;;5098956;28;20216;-69
2022/04/17 00:52:11;;;;;;;7.10;6.40;;;10.50;99.90;;;;;;5117116;28;20626;-68
2022/04/17 00:54:44;;;;;;;17.00;11.63;;;10.50;99.90;;;;;;5117007;28;20171;-68
2022/04/17 00:57:12;;;;;;;26.93;17.60;;;10.50;99.90;;;;;;5116596;28;20292;-69
2022/04/17 00:59:42;;;;;;;22.07;13.27;;;10.50;99.90;;;;;;5116769;28;20606;-69
2022/04/17 01:02:08;;;;;;;15.00;10.90;;;10.40;1.00;;;;;;5116570;28;20258;-68
2022/04/17 01:04:34;;;;;;;11.03;8.00;;;10.40;1.00;;;;;;5116847;28;20247;-67
2022/04/17 01:07:00;;;;;;;29.97;16.03;;;10.30;1.00;;;;;;5116845;28;20629;-68
2022/04/17 01:09:26;;;;;;;16.20;11.47;;;10.30;1.00;;;;;;5116837;28;20221;-68
2022/04/17 01:11:52;;;;;;;18.13;12.50;;;10.20;1.00;;;;;;5116711;28;20211;-69
2022/04/17 01:14:20;;;;;;;11.40;8.33;;;10.20;1.00;;;;;;5116672;28;20171;-68
2022/04/17 01:16:46;;;;;;;9.80;5.57;;;10.10;1.00;;;;;;5116164;28;20207;-68
2022/04/17 01:19:12;;;;;;;17.33;12.03;;;10.10;99.90;;;;;;5116609;28;20223;-68
2022/04/17 01:21:42;;;;;;;10.73;7.40;;;10.00;99.90;;;;;;5116464;28;20171;-68
2022/04/17 01:26:58;;;;;;;9.20;6.10;;;9.90;1.00;;;;;;5116908;28;20307;-68
2022/04/17 01:29:35;;;;;;;18.53;10.83;;;9.80;1.00;;;;;;5116268;28;20175;-68
2022/04/17 01:32:02;;;;;;;29.83;18.63;;;9.80;1.00;;;;;;5115954;28;20256;-68
2022/04/17 01:34:28;;;;;;;7.97;5.90;;;9.80;1.00;;;;;;5116258;28;20164;-68
2022/04/17 01:36:55;;;;;;;7.37;5.63;;;9.70;1.00;;;;;;5116332;28;21013;-68
2022/04/17 01:39:21;;;;;;;6.37;5.33;;;9.70;99.90;;;;;;5116144;28;20163;-68
2022/04/17 01:41:48;;;;;;;6.40;5.80;;;9.60;99.90;;;;;;5116310;28;20171;-68
2022/04/17 01:44:16;;;;;;;7.77;5.60;;;9.60;99.90;;;;;;5116250;28;20163;-68
2022/04/17 01:46:42;;;;;;;7.10;5.97;;;9.60;99.90;;;;;;5115744;28;20174;-68
2022/04/17 01:49:08;;;;;;;6.03;5.50;;;9.60;35.70;;;;;;5115572;28;20174;-68
2022/04/17 01:51:38;;;;;;;8.90;6.07;;;9.50;1.00;;;;;;5116086;28;20167;-68
2022/04/17 01:54:11;;;;;;;8.63;6.37;;;9.40;99.90;;;;;;5116023;28;20170;-68
2022/04/17 01:56:39;;;;;;;14.33;9.57;;;9.40;99.90;;;;;;5115556;28;20233;-68
2022/04/17 01:59:06;;;;;;;8.30;6.83;;;9.30;1.00;;;;;;5115458;28;20201;-68
2022/04/17 02:01:36;;;;;;;9.30;6.90;;;9.30;99.90;;;;;;5115724;28;20270;-68
2022/04/17 02:04:03;;;;;;;13.60;8.77;;;9.30;1.00;;;;;;5115679;28;20174;-68
2022/04/17 02:06:29;;;;;;;11.13;8.70;;;9.20;99.90;;;;;;5115979;28;20159;-68
2022/04/17 02:08:54;;;;;;;8.23;6.57;;;9.00;99.90;;;;;;5115799;28;20657;-68
2022/04/17 02:11:22;;;;;;;9.80;6.97;;;8.90;1.00;;;;;;5115398;28;20226;-68
2022/04/17 02:13:49;;;;;;;9.90;6.80;;;8.70;99.90;;;;;;5115008;28;20224;-68
2022/04/17 02:16:17;;;;;;;8.40;6.93;;;8.70;1.00;;;;;;5115312;28;20198;-68
2022/04/17 02:18:46;;;;;;;8.83;6.90;;;8.60;1.00;;;;;;5115369;28;20242;-68
2022/04/17 02:21:16;;;;;;;7.63;6.60;;;8.40;99.90;;;;;;5115501;28;20171;-68
2022/04/17 02:23:42;;;;;;;11.37;7.60;;;8.30;99.90;;;;;;5115188;28;20175;-68
2022/04/17 02:26:09;;;;;;;10.73;7.60;;;8.30;1.00;;;;;;5115259;28;20171;-68
2022/04/17 02:28:40;;;;;;;11.97;7.80;;;8.20;99.90;;;;;;5114843;28;20202;-68
2022/04/17 02:31:07;;;;;;;11.07;7.77;;;8.10;99.90;;;;;;5096784;28;20265;-68
2022/04/17 02:33:33;;;;;;;8.37;7.17;;;8.20;99.90;;;;;;5115126;28;20642;-68
2022/04/17 02:35:59;;;;;;;10.23;7.67;;;8.20;27.50;;;;;;5115018;28;20648;-67
2022/04/17 02:38:25;;;;;;;9.93;6.70;;;8.10;99.90;;;;;;5115042;28;20171;-68
2022/04/17 02:40:52;;;;;;;8.80;7.20;;;8.00;99.90;;;;;;5114899;28;20194;-68
2022/04/17 02:43:17;;;;;;;10.43;7.53;;;7.90;99.90;;;;;;5114494;28;20220;-68
2022/04/17 02:45:43;;;;;;;9.60;7.77;;;7.90;1.00;;;;;;5115000;28;20179;-67
2022/04/17 02:48:09;;;;;;;10.07;8.00;;;7.80;1.00;;;;;;5114904;28;20622;-68
2022/04/17 02:50:35;;;;;;;8.33;7.40;;;7.60;1.00;;;;;;5114753;28;20202;-67
2022/04/17 02:53:00;;;;;;;11.33;7.90;;;7.60;1.00;;;;;;5114950;28;20178;-68
2022/04/17 02:55:26;;;;;;;10.27;9.10;;;7.60;1.00;;;;;;5114521;28;20595;-67
2022/04/17 02:57:52;;;;;;;11.03;7.70;;;7.50;1.00;;;;;;5113962;28;20234;-68
2022/04/17 03:00:18;;;;;;;9.43;8.13;;;7.50;1.00;;;;;;5114408;28;20171;-68
2022/04/17 03:05:36;;;;;;;10.30;7.97;;;7.50;1.00;;;;;;5114802;28;20216;-68
2022/04/17 03:08:07;;;;;;;8.97;7.43;;;7.60;1.00;;;;;;5114644;28;20764;-68
2022/04/17 03:10:36;;;;;;;11.33;7.67;;;7.50;99.90;;;;;;5113972;28;20190;-67
2022/04/17 03:13:02;;;;;;;8.37;7.57;;;7.50;1.00;;;;;;5113954;28;20168;-67
2022/04/17 03:15:28;;;;;;;8.57;7.40;;;7.50;1.00;;;;;;5114626;28;20251;-68
2022/04/17 03:17:53;;;;;;;9.10;6.60;;;7.50;1.00;;;;;;5114356;28;20272;-68
2022/04/17 03:20:19;;;;;;;7.43;5.93;;;7.50;99.90;;;;;;5114422;28;20171;-67
2022/04/17 03:22:45;;;;;;;5.87;5.27;;;7.60;57.90;;;;;;5114233;28;20626;-68
2022/04/17 03:25:11;;;;;;;6.67;4.77;;;7.70;1.00;;;;;;5113854;28;20171;-68
2022/04/17 03:27:37;;;;;;;5.87;5.37;;;8.00;1.00;;;;;;5113692;28;20642;-68
2022/04/17 03:30:03;;;;;;;5.90;5.40;;;8.00;1.00;;;;;;5114137;28;20177;-68
2022/04/17 03:32:29;;;;;;;4.70;4.20;;;8.10;99.90;;;;;;5114049;28;20638;-67
2022/04/17 03:34:54;;;;;;;5.33;4.87;;;7.90;1.00;;;;;;5114218;28;20224;-68
2022/04/17 03:37:20;;;;;;;4.43;3.90;;;7.90;7.60;;;;;;5095961;28;20218;-68
2022/04/17 03:39:48;;;;;;;6.43;4.83;;;7.90;1.00;;;;;;5095524;28;20290;-68
2022/04/17 03:42:15;;;;;;;6.23;3.03;;;7.90;99.90;;;;;;5112979;28;20634;-67
2022/04/17 03:44:41;;;;;;;5.07;3.80;;;7.90;1.00;;;;;;5113985;28;20195;-67
2022/04/17 03:47:07;;;;;;;2.77;2.57;;;8.00;99.90;;;;;;5114052;28;20194;-68
2022/04/17 03:49:33;;;;;;;7.30;4.50;;;8.00;99.90;;;;;;5113797;28;20614;-68
2022/04/17 03:52:00;;;;;;;6.27;4.43;;;8.10;99.90;;;;;;5113810;28;20175;-68
2022/04/17 03:54:26;;;;;;;4.70;4.10;;;8.10;26.00;;;;;;5113347;28;20312;-68
2022/04/17 03:56:52;;;;;;;6.83;4.97;;;8.10;1.00;;;;;;5113190;28;20291;-68
2022/04/17 03:59:18;;;;;;;6.23;4.47;;;8.10;1.00;;;;;;5113603;28;20167;-68
2022/04/17 04:01:46;;;;;;;4.27;3.87;;;7.90;1.00;;;;;;5113742;28;20179;-68
2022/04/17 04:04:12;;;;;;;5.57;4.77;;;7.90;99.90;;;;;;5113362;28;20174;-67
2022/04/17 04:06:37;;;;;;;4.27;3.40;;;8.00;1.00;;;;;;5113326;28;20179;-67
2022/04/17 04:09:03;;;;;;;7.83;6.10;;;7.90;1.00;;;;;;5113340;28;20171;-68
2022/04/17 04:11:28;;;;;;;6.33;4.27;;;7.90;99.90;;;;;;5113101;28;20167;-67
2022/04/17 04:13:54;;;;;;;5.43;4.40;;;8.00;1.00;;;;;;5116671;28;20516;-67
2022/04/17 04:16:20;;;;;;;5.37;3.57;;;8.10;67.90;;;;;;5117533;28;20535;-66
2022/04/17 04:18:46;;;;;;;3.97;3.30;;;8.00;99.90;;;;;;5117433;28;20179;-66
2022/04/17 04:21:11;;;;;;;6.10;3.10;;;8.10;11.30;;;;;;5117603;28;20175;-66
2022/04/17 04:23:38;;;;;;;5.13;3.27;;;8.20;1.00;;;;;;5117036;28;20753;-66
2022/04/17 04:26:04;;;;;;;5.47;3.10;;;8.30;1.00;;;;;;5098756;28;20231;-66
2022/04/17 04:28:33;;;;;;;3.00;2.80;;;8.30;1.00;;;;;;5117549;28;20167;-66
2022/04/17 04:31:00;;;;;;;3.87;3.30;;;8.20;1.00;;;;;;5099101;28;20640;-67
2022/04/17 04:33:25;;;;;;;3.97;2.70;;;8.40;1.00;;;;;;5117755;28;20193;-67
2022/04/17 04:35:51;;;;;;;2.77;2.53;;;8.30;1.00;;;;;;5098995;28;20527;-67
2022/04/17 04:38:17;;;;;;;4.57;3.17;;;8.30;1.00;;;;;;5117338;28;20277;-66
2022/04/17 04:40:43;;;;;;;2.83;2.60;;;8.30;1.00;;;;;;5117198;28;20309;-67
2022/04/17 04:43:08;;;;;;;3.07;2.70;;;8.40;1.00;;;;;;5099221;28;20634;-67
2022/04/17 04:49:29;;;;;;;4.37;3.00;;;8.40;1.00;;;;;;5117076;28;20216;-67
2022/04/17 04:51:04;;;;;;;5.60;4.53;;;8.40;1.00;;;;;;5116701;28;20679;-67
2022/04/17 04:53:29;;;;;;;7.87;4.33;;;8.40;78.50;;;;;;5116577;28;20178;-67
2022/04/17 04:55:55;;;;;;;5.23;4.73;;;8.10;1.00;;;;;;5116601;28;20215;-67
2022/04/17 04:58:21;;;;;;;5.33;4.80;;;7.90;1.00;;;;;;5098043;28;20182;-67
2022/04/17 05:00:46;;;;;;;6.27;5.20;;;7.80;1.00;;;;;;5117082;28;20177;-67
2022/04/17 05:03:12;;;;;;;6.07;5.00;;;8.00;99.90;;;;;;5098535;28;20178;-67
2022/04/17 05:05:38;;;;;;;6.53;4.93;;;8.70;1.00;;;;;;5116575;28;20199;-66
2022/04/17 05:08:04;;;;;;;9.03;4.57;;;9.40;1.00;;;;;;5116401;28;20527;-67
2022/04/17 05:10:30;;;;;;;5.73;4.87;;;9.90;1.00;;;;;;5116577;28;20175;-67
2022/04/17 05:12:56;;;;;;;6.67;5.10;;;10.50;99.90;;;;;;5116557;28;20582;-67
2022/04/17 05:15:22;;;;;;;9.00;4.70;;;11.40;1.00;;;;;;5116486;28;20261;-67
2022/04/17 05:17:48;;;;;;;6.17;5.07;;;12.50;1.00;;;;;;5116483;28;20205;-68
2022/04/17 05:20:14;;;;;;;5.07;4.57;;;13.10;99.90;;;;;;5097986;28;20179;-68
2022/04/17 05:22:40;;;;;;;5.60;3.87;;;12.90;99.90;;;;;;5116182;28;20171;-68
2022/04/17 05:25:06;;;;;;;5.73;4.43;;;13.00;99.90;;;;;;5097368;28;20235;-68
2022/04/17 05:27:32;;;;;;;6.73;5.00;;;13.90;99.90;;;;;;5116271;28;20689;-68
2022/04/17 05:29:57;;;;;;;6.07;4.60;;;14.70;99.90;;;;;;5115820;28;20198;-68
2022/04/17 05:32:23;;;;;;;5.10;4.60;;;15.50;99.90;;;;;;5116358;28;20183;-69
2022/04/17 05:34:49;;;;;;;5.07;4.47;;;16.30;99.90;;;;;;5115686;28;20261;-69
2022/04/17 05:37:15;;;;;;;4.57;4.17;;;17.00;99.90;;;;;;5097402;28;20217;-69
2022/04/17 05:39:41;;;;;;;5.37;4.50;;;17.70;99.90;;;;;;5115809;28;20588;-69
2022/04/17 05:42:07;;;;;;;7.30;4.40;;;17.50;99.90;;;;;;5097277;28;20175;-70
2022/04/17 05:44:35;;;;;;;5.53;4.32;;;17.70;99.90;;;;;;5115787;28;20220;-70
2022/04/17 05:47:01;;;;;;;4.60;4.22;;;17.80;99.90;;;;;;5115878;28;20211;-70
2022/04/17 05:49:27;;;;;;;4.97;4.57;;;18.40;99.90;;;;;;5115446;28;20163;-70
2022/04/17 05:51:55;;;;;;;4.60;4.20;;;19.30;99.90;;;;;;5115688;28;20262;-70
2022/04/17 05:54:21;;;;;;;4.45;4.10;;;19.80;99.90;;;;;;5115720;28;20316;-70
2022/04/17 05:56:46;;;;;;;7.15;4.60;;;19.10;99.90;;;;;;5115377;27;20747;-70
2022/04/17 05:59:12;;;;;;;5.57;4.68;;;17.80;99.90;;;;;;5115114;28;20194;-71
2022/04/17 06:01:37;;;;;;;5.38;4.88;;;17.20;99.90;;;;;;5115695;28;20171;-72
2022/04/17 06:04:03;;;;;;;4.45;3.95;;;17.40;99.90;;;;;;5115464;28;20205;-71
2022/04/17 06:06:29;;;;;;;5.93;4.50;;;18.30;99.90;;;;;;5115335;28;20583;-71
2022/04/17 06:08:54;;;;;;;3.75;3.45;;;19.10;99.90;;;;;;5115732;28;20172;-71
2022/04/17 06:11:20;;;;;;;3.95;3.65;;;20.30;99.90;;;;;;5115381;28;20629;-71
2022/04/17 06:13:45;;;;;;;4.15;3.38;;;20.50;99.90;;;;;;5115211;28;20174;-71
2022/04/17 06:16:11;;;;;;;6.75;3.70;;;21.20;99.90;;;;;;5115450;28;20163;-71
2022/04/17 06:18:37;;;;;;;3.58;3.38;;;20.90;99.90;;;;;;5115114;28;20183;-71
2022/04/17 06:21:02;;;;;;;3.20;3.00;;;20.80;99.90;;;;;;5114714;28;20167;-70
2022/04/17 06:23:28;;;;;;;3.28;3.00;;;21.60;99.90;;;;;;5115602;28;20171;-71
2022/04/17 06:25:54;;;;;;;3.28;3.08;;;22.40;99.60;;;;;;5096756;28;20644;-72
2022/04/17 06:28:19;;;;;;;4.72;3.17;;;23.90;93.90;;;;;;5115063;28;20525;-71
2022/04/17 06:30:46;;;;;;;3.45;3.20;;;23.90;88.90;;;;;;5115139;28;20216;-71
2022/04/17 06:33:11;;;;;;;3.15;2.90;;;23.50;82.80;;;;;;5115132;28;20178;-72
2022/04/17 06:35:37;;;;;;;3.85;3.38;;;23.40;77.30;;;;;;5113657;28;20505;-71
2022/04/17 06:38:05;;;;;;;3.78;3.47;;;24.20;76.10;;;;;;5114135;28;20218;-72
2022/04/17 06:40:33;;;;;;;3.60;3.30;;;25.40;71.00;;;;;;5114767;28;20186;-71
2022/04/17 06:43:05;;;;;;;3.20;3.00;;;25.50;63.20;;;;;;5114291;28;20203;-72
2022/04/17 06:45:31;;;;;;;3.15;2.85;;;26.70;56.80;;;;;;5114646;28;20175;-71
2022/04/17 06:47:57;;;;;;;3.05;2.85;;;26.20;49.70;;;;;;5114337;28;20175;-72
2022/04/17 06:50:23;;;;;;;3.65;2.67;;;26.30;45.00;;;;;;5113836;28;20171;-73
2022/04/17 06:52:50;;;;;;;2.83;2.63;;;26.50;42.40;;;;;;5114643;28;20178;-73
2022/04/17 06:55:16;;;;;;;3.35;2.90;;;26.10;41.50;;;;;;5114554;28;20599;-72
2022/04/17 06:57:47;;;;;;;2.85;2.60;;;24.50;42.30;;;;;;5113899;28;20266;-73
2022/04/17 07:00:13;;;;;;;2.85;2.63;;;25.20;44.50;;;;;;5114046;28;20167;-72
2022/04/17 07:02:40;;;;;;;2.20;2.10;;;25.70;40.50;;;;;;5113908;28;20175;-72
2022/04/17 07:05:06;;;;;;;2.83;2.33;;;25.90;37.10;;;;;;5113679;28;20196;-72
2022/04/17 07:07:32;;;;;;;2.53;2.33;;;25.60;34.00;;;;;;5114481;28;20175;-73
2022/04/17 07:09:58;;;;;;;3.00;2.67;;;25.40;33.00;;;;;;5113853;28;20181;-73
2022/04/17 07:12:24;;;;;;;3.70;2.20;;;26.20;30.00;;;;;;5113722;28;20175;-73
2022/04/17 07:14:50;;;;;;;2.78;2.38;;;26.10;29.90;;;;;;5114240;28;20164;-74
2022/04/17 07:17:16;;;;;;;2.47;2.35;;;26.20;29.50;;;;;;5113770;28;20199;-74
2022/04/17 07:19:42;;;;;;;2.20;2.10;;;26.60;26.30;;;;;;5113502;28;20494;-74
2022/04/17 07:22:07;;;;;;;1.90;1.80;;;26.70;24.90;;;;;;5113983;28;20262;-73
2022/04/17 07:24:33;;;;;;;2.60;2.40;;;26.50;24.50;;;;;;5113346;28;20529;-74
2022/04/17 07:27:00;;;;;;;2.75;2.13;;;26.30;22.40;;;;;;5113703;28;20171;-74
2022/04/17 07:29:26;;;;;;;2.50;2.33;;;27.00;23.60;;;;;;5114083;28;20301;-74
2022/04/17 07:31:55;;;;;;;3.25;2.17;;;26.50;21.50;;;;;;5113624;28;20250;-75
2022/04/17 07:34:22;;;;;;;4.28;2.67;;;24.90;26.40;;;;;;5113260;28;20526;-73
2022/04/17 07:36:52;;;;;;;2.45;2.28;;;24.80;24.10;;;;;;5113655;28;20237;-74
2022/04/17 07:39:18;;;;;;;2.55;2.38;;;25.50;22.60;;;;;;5113504;28;20276;-74
2022/04/17 07:41:46;;;;;;;2.40;2.20;;;26.10;21.60;;;;;;5113105;28;20296;-74
2022/04/17 07:44:11;;;;;;;2.33;2.22;;;25.50;22.50;;;;;;5113574;28;20174;-74
2022/04/17 07:46:39;;;;;;;2.53;2.33;;;25.10;20.40;;;;;;5094907;28;20163;-74
2022/04/17 07:49:05;;;;;;;2.42;2.30;;;24.30;24.20;;;;;;5112698;28;20170;-74
2022/04/17 07:51:31;;;;;;;2.33;2.22;;;24.10;25.20;;;;;;5113719;28;20164;-74
2022/04/17 07:53:56;;;;;;;2.67;2.47;;;25.10;22.20;;;;;;5112917;28;20638;-75
2022/04/17 07:56:22;;;;;;;2.47;2.38;;;25.80;21.20;;;;;;5113126;28;20223;-75
2022/04/17 07:58:49;;;;;;;2.65;2.38;;;25.90;17.50;;;;;;5094583;28;20203;-74
2022/04/17 08:01:16;;;;;;;2.50;2.30;;;26.30;16.60;;;;;;5113044;28;20521;-75
2022/04/17 08:06:12;;;;;;;2.63;2.28;;;26.90;16.00;;;;;;5113540;28;20261;-74
2022/04/17 08:08:39;;;;;;;2.55;2.40;;;27.10;15.70;;;;;;5112866;28;20702;-74
2022/04/17 08:11:06;;;;;;;2.40;2.20;;;25.60;16.00;;;;;;5112987;28;20167;-73
2022/04/17 08:13:32;;;;;;;6.05;5.50;;;25.50;18.00;;;;;;5112985;28;20174;-74
2022/04/17 08:15:59;;;;;;;2.45;2.35;;;25.10;17.30;;;;;;5112859;28;20175;-74
2022/04/17 08:18:24;;;;;;;2.90;2.70;;;24.50;18.20;;;;;;5113511;28;20234;-74
2022/04/17 08:20:50;;;;;;;2.55;2.38;;;24.50;18.40;;;;;;5112905;28;20518;-74
2022/04/17 08:23:16;;;;;;;4.28;3.00;;;23.80;18.00;;;;;;5113035;28;20636;-74
2022/04/17 08:25:43;;;;;;;2.80;2.60;;;23.20;22.80;;;;;;5113019;28;20163;-73
2022/04/17 08:28:08;;;;;;;2.72;2.63;;;23.40;21.20;;;;;;5112674;28;20174;-75
2022/04/17 08:30:35;;;;;;;3.10;2.90;;;23.50;20.80;;;;;;5112449;28;20645;-72
2022/04/17 08:33:03;;;;;;;3.65;3.35;;;23.10;22.40;;;;;;5112881;28;20167;-74
2022/04/17 08:35:29;;;;;;;3.10;2.90;;;23.90;22.10;;;;;;5112936;28;20256;-74
2022/04/17 08:37:57;;;;;;;2.67;2.58;;;23.90;20.00;;;;;;5112971;28;20650;-74
2022/04/17 08:40:26;;;;;;;3.08;2.95;;;24.50;17.00;;;;;;5112593;28;20206;-75
2022/04/17 08:42:53;;;;;;;2.97;2.88;;;25.00;19.60;;;;;;5112847;28;20176;-75
2022/04/17 08:45:19;;;;;;;3.30;3.00;;;26.90;16.00;;;;;;5112654;28;20167;-75
2022/04/17 08:47:45;;;;;;;3.58;2.60;;;28.30;10.00;;;;;;5112727;28;20182;-75
2022/04/17 08:50:16;;;;;;;2.80;2.70;;;27.50;8.00;;;;;;5093900;28;20163;-75
2022/04/17 08:52:45;;;;;;;2.58;2.47;;;28.20;9.20;;;;;;5113323;28;20236;-75
2022/04/17 08:55:11;;;;;;;2.90;2.80;;;29.00;9.10;;;;;;5112509;28;20164;-75
2022/04/17 08:57:37;;;;;;;3.35;3.05;;;28.20;7.40;;;;;;5111851;28;20574;-75
2022/04/17 09:00:04;;;;;;;2.72;2.53;;;27.60;5.90;;;;;;5113693;28;20175;-75
2022/04/17 09:02:30;;;;;;;2.97;2.78;;;26.20;8.20;;;;;;5116634;28;20232;-75
2022/04/17 09:04:56;;;;;;;2.97;2.65;;;26.00;11.00;;;;;;5097825;28;20171;-75
2022/04/17 09:07:21;;;;;;;3.90;3.15;;;25.30;10.30;;;;;;5097877;28;20171;-74
2022/04/17 09:09:48;;;;;;;3.42;3.10;;;22.80;16.30;;;;;;5116178;28;20216;-74
2022/04/17 09:12:24;;;;;;;3.03;2.83;;;23.10;18.70;;;;;;5116513;28;20191;-74
2022/04/17 09:14:51;;;;;;;2.90;2.70;;;24.70;16.00;;;;;;5115555;28;20178;-75
2022/04/17 09:17:18;;;;;;;3.33;3.10;;;24.60;14.80;;;;;;5116104;28;20207;-74
2022/04/17 09:19:44;;;;;;;3.10;2.90;;;24.30;16.30;;;;;;5116092;28;20160;-74
2022/04/17 09:22:10;;;;;;;3.20;2.90;;;25.70;12.60;;;;;;5116371;28;20579;-75
2022/04/17 09:24:37;;;;;;;3.22;3.03;;;26.10;12.30;;;;;;5115862;28;20186;-74
2022/04/17 09:27:04;;;;;;;3.20;3.00;;;24.30;15.60;;;;;;5116081;28;20163;-74
2022/04/17 09:29:33;;;;;;;3.67;3.38;;;25.00;13.70;;;;;;5115307;28;20171;-75
2022/04/17 09:32:03;;;;;;;3.05;2.85;;;25.10;14.30;;;;;;5115469;28;20172;-74
2022/04/17 09:34:47;;;;;;;3.40;3.10;;;23.60;18.40;;;;;;5116450;28;20202;-74
2022/04/17 09:37:18;;;;;;;3.03;2.83;;;23.50;18.70;;;;;;5115525;28;20195;-74
2022/04/17 09:39:44;;;;;;;3.65;3.35;;;23.80;17.80;;;;;;5115033;28;20470;-74
2022/04/17 09:42:10;;;;;;;3.10;2.90;;;24.30;17.80;;;;;;5115076;28;20626;-74
2022/04/17 09:44:38;;;;;;;3.20;3.10;;;25.40;14.20;;;;;;5115561;28;20266;-74
2022/04/17 09:47:12;;;;;;;3.60;3.30;;;25.50;12.90;;;;;;5115551;28;20187;-74
2022/04/17 09:49:57;;;;;;;3.50;3.30;;;24.50;14.70;;;;;;5115347;28;20163;-73
2022/04/17 09:52:31;;;;;;;3.78;3.47;;;21.80;22.10;;;;;;5116027;28;20167;-74
2022/04/17 09:55:01;;;;;;;3.50;3.30;;;22.60;21.40;;;;;;5115035;28;20243;-73
2022/04/17 09:57:31;;;;;;;3.65;3.25;;;23.50;18.90;;;;;;5113869;28;20245;-73
2022/04/17 10:00:06;;;;;;;3.55;3.33;;;21.60;22.50;;;;;;5115395;28;20172;-73
2022/04/17 10:02:33;;;;;;;3.40;3.20;;;22.20;24.00;;;;;;5115629;28;20182;-74
2022/04/17 10:05:00;;;;;;;3.78;3.47;;;21.80;24.00;;;;;;5115057;28;20179;-73
2022/04/17 10:07:27;;;;;;;4.13;3.70;;;20.70;26.60;;;;;;5115133;28;20171;-74
2022/04/17 10:09:53;;;;;;;5.25;4.85;;;20.70;27.20;;;;;;5115176;28;20175;-73
2022/04/17 10:12:20;;;;;;;4.18;3.70;;;22.20;25.00;;;;;;5114394;28;20537;-72
2022/04/17 10:14:50;;;;;;;4.20;3.90;;;22.90;23.30;;;;;;5096719;28;20167;-72
2022/04/17 10:17:21;;;;;;;3.55;3.35;;;21.90;25.20;;;;;;5114973;28;20202;-73
2022/04/17 10:19:50;;;;;;;4.18;3.72;;;21.80;26.70;;;;;;5114337;28;20175;-73
2022/04/17 10:22:21;;;;;;;3.72;3.42;;;22.10;26.30;;;;;;5115162;28;20219;-72
2022/04/17 10:24:51;;;;;;;4.05;3.80;;;21.80;26.10;;;;;;5114885;28;20166;-72
2022/04/17 10:27:26;;;;;;;4.28;3.97;;;22.20;24.60;;;;;;5114390;28;20171;-72
2022/04/17 10:30:08;;;;;;;3.80;3.53;;;22.40;25.80;;;;;;5096797;28;20166;-73
2022/04/17 10:32:38;;;;;;;4.18;3.63;;;21.80;27.30;;;;;;5114819;28;20569;-73
2022/04/17 10:35:10;;;;;;;4.00;3.80;;;20.60;28.30;;;;;;5114914;28;20191;-72
2022/04/17 10:37:47;;;;;;;4.70;3.40;;;19.80;33.00;;;;;;5114026;28;20203;-72
2022/04/17 10:40:13;;;;;;;4.10;3.50;;;20.50;32.50;;;;;;5113986;28;20665;-72
2022/04/17 10:42:56;;;;;;;4.03;3.70;;;21.50;26.80;;;;;;5114157;28;20660;-72
2022/04/17 10:45:22;;;;;;;4.78;3.90;;;20.40;29.20;;;;;;5095664;28;20263;-71
2022/04/17 10:48:26;;;;;;;4.80;4.40;;;19.80;30.70;;;;;;5114634;28;20175;-72
2022/04/17 10:50:52;;;;;;;3.97;3.67;;;19.40;35.50;;;;;;5062273;28;20205;-72
2022/04/17 10:53:25;;;;;;;4.32;3.90;;;20.40;31.00;;;;;;5113977;28;20254;-72
2022/04/17 10:56:04;;;;;;;4.15;3.92;;;20.80;32.60;;;;;;5113316;28;20344;-72
2022/04/17 10:58:51;;;;;;;4.20;3.90;;;21.10;32.60;;;;;;5113533;28;20238;-73
2022/04/17 11:01:40;;;;;;;4.30;4.00;;;20.80;34.20;;;;;;5113991;28;20168;-72
2022/04/17 11:04:15;;;;;;;4.60;4.20;;;20.60;35.50;;;;;;5113389;28;20529;-71
2022/04/17 11:06:42;;;;;;;4.47;4.18;;;20.10;34.50;;;;;;5113936;28;20170;-72
2022/04/17 11:09:13;;;;;;;4.40;4.00;;;20.70;34.00;;;;;;5113846;28;20163;-72
2022/04/17 11:11:40;;;;;;;5.22;4.82;;;21.10;34.20;;;;;;5113464;28;20524;-72
2022/04/17 11:14:11;;;;;;;5.38;4.88;;;19.90;35.40;;;;;;5114243;28;20178;-72
2022/04/17 11:16:42;;;;;;;4.53;3.70;;;19.70;37.00;;;;;;5113999;28;20195;-72
2022/04/17 11:19:13;;;;;;;6.10;5.45;;;20.30;35.60;;;;;;5113306;28;20224;-72
2022/04/17 11:21:47;;;;;;;3.83;3.60;;;20.20;35.50;;;;;;5113730;28;20168;-72
2022/04/17 11:24:13;;;;;;;4.55;3.95;;;20.00;36.30;;;;;;5112659;28;20175;-72
2022/04/17 11:26:52;;;;;;;4.63;4.20;;;21.00;34.60;;;;;;5113648;28;20179;-72
2022/04/17 11:29:37;;;;;;;6.10;5.60;;;21.10;30.40;;;;;;5113860;28;20174;-72
2022/04/17 11:32:18;;;;;;;5.18;4.72;;;21.00;35.70;;;;;;5113376;28;20216;-72
2022/04/17 11:34:47;;;;;;;4.28;3.97;;;20.40;36.10;;;;;;5113343;28;20159;-72
2022/04/17 11:37:16;;;;;;;4.22;3.88;;;20.50;57.00;;;;;;5113480;28;20215;-71
2022/04/17 11:39:42;;;;;;;4.38;4.07;;;20.80;35.70;;;;;;5112793;28;20179;-72
2022/04/17 11:42:09;;;;;;;3.90;3.65;;;20.40;33.80;;;;;;5113502;28;20179;-72
2022/04/17 11:44:36;;;;;;;4.40;4.10;;;20.80;33.60;;;;;;5113318;28;20533;-72
2022/04/17 11:47:02;;;;;;;4.72;3.95;;;19.20;39.30;;;;;;5113764;28;20182;-72
2022/04/17 11:49:32;;;;;;;4.97;4.57;;;19.00;40.10;;;;;;5112702;28;20262;-72
2022/04/17 11:52:11;;;;;;;5.63;4.53;;;18.70;42.50;;;;;;5113077;28;20201;-71
2022/04/17 11:54:37;;;;;;;6.07;4.40;;;18.90;43.70;;;;;;5112848;28;20167;-71
2022/04/17 11:57:03;;;;;;;6.15;5.40;;;19.60;42.00;;;;;;5112577;28;20254;-71
2022/04/17 11:59:28;;;;;;;9.30;8.40;;;19.90;36.40;;;;;;5094742;28;20199;-71
2022/04/17 12:02:12;;;;;;;6.32;5.82;;;20.00;40.60;;;;;;5112771;28;20533;-70
2022/04/17 12:04:38;;;;;;;5.30;4.90;;;19.30;44.20;;;;;;5113227;28;20198;-72
2022/04/17 12:07:04;;;;;;;5.60;5.20;;;19.30;42.80;;;;;;5112879;28;20687;-71
2022/04/17 12:09:29;;;;;;;6.28;5.45;;;19.30;43.20;;;;;;5112398;28;20637;-71
2022/04/17 12:11:55;;;;;;;5.57;5.18;;;19.30;45.80;;;;;;5112895;28;20206;-70
2022/04/17 12:14:31;;;;;;;5.38;4.88;;;19.10;45.80;;;;;;5112982;28;20224;-70
2022/04/17 12:16:57;;;;;;;5.50;5.00;;;19.20;49.60;;;;;;5113301;28;20199;-70
2022/04/17 12:19:25;;;;;;;5.95;5.55;;;19.20;47.50;;;;;;5113051;28;20164;-70
2022/04/17 12:21:52;;;;;;;6.10;5.60;;;18.80;51.00;;;;;;5112500;28;20178;-70
2022/04/17 12:24:18;;;;;;;5.60;5.20;;;18.70;52.20;;;;;;5112156;28;20163;-70
2022/04/17 12:26:46;;;;;;;6.63;5.90;;;18.60;53.90;;;;;;5112487;28;20160;-70
2022/04/17 12:29:12;;;;;;;6.45;5.63;;;18.90;52.40;;;;;;5113335;28;20175;-70
2022/04/17 12:31:37;;;;;;;5.20;4.80;;;18.90;53.80;;;;;;5112468;28;20166;-69
2022/04/17 12:34:16;;;;;;;5.55;5.05;;;18.80;51.20;;;;;;5114647;28;20172;-69
2022/04/17 12:36:44;;;;;;;5.47;4.97;;;18.60;75.20;;;;;;5116060;28;20203;-70
2022/04/17 12:39:10;;;;;;;6.72;5.18;;;18.90;53.20;;;;;;5116232;28;20176;-70
2022/04/17 12:41:42;;;;;;;5.97;5.47;;;18.80;50.40;;;;;;5116572;28;20187;-70
2022/04/17 12:44:11;;;;;;;5.97;5.47;;;18.70;56.40;;;;;;5116932;28;20224;-69
2022/04/17 12:46:42;;;;;;;6.05;5.15;;;18.60;56.40;;;;;;5116974;28;20175;-69
2022/04/17 12:49:15;;;;;;;6.63;6.05;;;18.80;55.20;;;;;;5116523;28;20179;-70
2022/04/17 12:51:54;;;;;;;6.30;5.45;;;19.00;57.40;;;;;;5097401;28;20179;-69
2022/04/17 12:54:20;;;;;;;5.93;5.30;;;18.60;52.80;;;;;;5116358;28;20175;-70
2022/04/17 12:56:47;;;;;;;5.60;5.13;;;18.70;53.90;;;;;;5116499;28;20226;-69
2022/04/17 12:59:18;;;;;;;6.80;5.32;;;18.90;55.20;;;;;;5097596;28;20213;-70
2022/04/17 13:01:48;;;;;;;5.78;5.22;;;18.90;69.50;;;;;;5116538;28;20171;-69
2022/04/17 13:04:19;;;;;;;6.68;6.05;;;18.60;52.40;;;;;;5115773;28;20630;-69